Time;durP1;ratioP1;P1;durP2;ratioP2;P2;SDS_P1;SDS_P2;PMS_P1;PMS_P2;Temp;Humidity;BMP_temperature;BMP_pressure;BME280_temperature;BME280_humidity;BME280_pressure;Samples;Min_cycle;Max_cycle;Signal;HPM_P1;HPM_P2
2021/12/03 00:00:48;;;;;;;30.57;17.40;;;1.70;97.00;;;;;;5056294;28;20415;-73
2021/12/03 00:03:14;;;;;;;38.77;20.00;;;1.70;97.10;;;;;;5056987;28;20412;-75
2021/12/03 00:05:40;;;;;;;28.87;16.90;;;1.70;97.20;;;;;;5056505;28;20462;-75
2021/12/03 00:08:07;;;;;;;31.23;17.63;;;1.70;97.20;;;;;;5055416;28;20693;-75
2021/12/03 00:10:35;;;;;;;30.40;18.27;;;1.70;97.30;;;;;;5055679;28;20444;-75
2021/12/03 00:13:02;;;;;;;29.50;18.50;;;1.70;97.10;;;;;;5053024;28;20408;-74
2021/12/03 00:15:28;;;;;;;28.50;17.03;;;1.70;97.30;;;;;;5053270;28;20901;-74
2021/12/03 00:17:54;;;;;;;31.53;18.40;;;1.70;97.30;;;;;;5052217;28;20529;-76
2021/12/03 00:20:21;;;;;;;27.90;16.47;;;1.70;97.40;;;;;;5053494;28;20828;-74
2021/12/03 00:22:50;;;;;;;31.50;18.80;;;1.70;97.40;;;;;;5053640;28;20773;-74
2021/12/03 00:25:16;;;;;;;26.43;15.70;;;1.70;97.50;;;;;;5053708;28;20440;-76
2021/12/03 00:27:42;;;;;;;30.33;15.50;;;1.70;97.30;;;;;;5053286;28;20507;-76
2021/12/03 00:30:11;;;;;;;25.90;17.40;;;1.70;97.40;;;;;;5052466;28;20184;-76
2021/12/03 00:32:38;;;;;;;28.27;17.00;;;1.70;97.30;;;;;;5053755;28;20404;-77
2021/12/03 00:35:05;;;;;;;33.77;16.90;;;1.70;97.50;;;;;;5054080;28;20901;-75
2021/12/03 00:37:31;;;;;;;34.73;18.63;;;1.70;97.40;;;;;;5053266;28;21000;-74
2021/12/03 00:39:57;;;;;;;37.80;19.17;;;1.70;97.50;;;;;;5053449;28;20481;-76
2021/12/03 00:42:25;;;;;;;32.20;17.33;;;1.70;97.40;;;;;;5053274;28;20416;-77
2021/12/03 00:44:54;;;;;;;35.73;19.00;;;1.70;97.40;;;;;;5051602;28;20538;-75
2021/12/03 00:47:20;;;;;;;32.77;18.50;;;1.60;97.40;;;;;;5052780;28;20439;-75
2021/12/03 00:49:46;;;;;;;38.70;19.80;;;1.60;97.50;;;;;;5052292;28;20416;-73
2021/12/03 00:52:12;;;;;;;31.63;18.13;;;1.60;97.60;;;;;;5052857;28;20176;-75
2021/12/03 00:54:38;;;;;;;27.93;15.73;;;1.60;97.50;;;;;;5052970;28;20223;-74
2021/12/03 00:57:04;;;;;;;31.60;18.03;;;1.60;97.60;;;;;;5053608;28;20799;-75
2021/12/03 00:59:30;;;;;;;31.30;18.17;;;1.60;97.70;;;;;;5053111;28;20306;-74
2021/12/03 01:01:56;;;;;;;29.53;17.40;;;1.70;97.70;;;;;;5053120;28;20459;-75
2021/12/03 01:04:21;;;;;;;29.27;17.27;;;1.70;97.70;;;;;;5055776;28;20166;-75
2021/12/03 01:06:47;;;;;;;33.60;17.50;;;1.80;97.60;;;;;;5055277;28;20178;-75
2021/12/03 01:09:14;;;;;;;31.77;17.87;;;1.90;97.60;;;;;;5058700;28;20257;-75
2021/12/03 01:11:40;;;;;;;31.87;16.57;;;2.00;97.50;;;;;;5056468;28;20408;-74
2021/12/03 01:14:06;;;;;;;23.87;15.43;;;2.10;97.30;;;;;;5052782;28;20416;-74
2021/12/03 01:16:32;;;;;;;29.90;15.53;;;2.20;97.10;;;;;;5051352;28;20180;-74
2021/12/03 01:18:58;;;;;;;33.50;17.90;;;2.30;96.90;;;;;;5053307;28;20162;-75
2021/12/03 01:21:25;;;;;;;28.93;17.70;;;2.30;96.50;;;;;;5052140;28;20491;-76
2021/12/03 01:23:52;;;;;;;28.23;16.63;;;2.30;96.30;;;;;;5058659;28;20929;-75
2021/12/03 01:26:19;;;;;;;24.70;15.37;;;2.30;96.50;;;;;;5053498;28;20447;-73
2021/12/03 01:28:45;;;;;;;30.80;17.60;;;2.40;96.50;;;;;;5052319;28;21002;-74
2021/12/03 01:31:11;;;;;;;29.53;16.67;;;2.40;96.30;;;;;;5053219;28;20411;-74
2021/12/03 01:33:37;;;;;;;28.67;17.07;;;2.40;96.20;;;;;;5052641;28;20415;-73
2021/12/03 01:36:03;;;;;;;27.30;16.50;;;2.40;96.10;;;;;;5052604;28;20416;-74
2021/12/03 01:38:29;;;;;;;32.20;16.40;;;2.40;96.10;;;;;;5051644;28;20598;-74
2021/12/03 01:40:55;;;;;;;23.77;15.13;;;2.50;96.10;;;;;;5052747;28;20416;-74
2021/12/03 01:43:23;;;;;;;27.50;17.93;;;2.50;96.00;;;;;;5053566;28;20261;-75
2021/12/03 01:45:59;;;;;;;32.77;16.67;;;2.50;95.90;;;;;;5052109;28;20563;-72
2021/12/03 01:48:26;;;;;;;31.00;17.37;;;2.40;95.60;;;;;;5053146;28;20929;-73
2021/12/03 01:50:52;;;;;;;28.37;16.00;;;2.40;95.70;;;;;;5056784;28;20410;-73
2021/12/03 01:53:20;;;;;;;29.00;16.50;;;2.30;95.90;;;;;;5056079;28;20495;-74
2021/12/03 01:55:47;;;;;;;30.23;16.00;;;2.30;95.90;;;;;;5055708;28;20412;-74
2021/12/03 01:58:14;;;;;;;26.33;14.80;;;2.20;95.90;;;;;;5055162;28;20436;-74
2021/12/03 02:00:48;;;;;;;25.20;15.63;;;2.10;95.90;;;;;;5056197;28;20400;-73
2021/12/03 02:03:15;;;;;;;28.83;17.27;;;2.00;96.10;;;;;;5055237;28;20435;-74
2021/12/03 02:05:43;;;;;;;24.80;14.90;;;2.00;96.40;;;;;;5054230;28;20451;-74
2021/12/03 02:08:09;;;;;;;29.93;16.63;;;2.00;96.60;;;;;;5054636;28;20937;-73
2021/12/03 02:10:36;;;;;;;27.40;15.30;;;2.00;96.70;;;;;;5056393;28;20411;-74
2021/12/03 02:13:02;;;;;;;33.70;15.17;;;2.00;96.70;;;;;;5055862;28;20292;-71
2021/12/03 02:15:28;;;;;;;27.93;13.60;;;2.00;96.80;;;;;;5056209;28;20476;-74
2021/12/03 02:17:54;;;;;;;25.90;15.03;;;1.90;96.70;;;;;;5055666;28;20566;-73
2021/12/03 02:20:20;;;;;;;26.37;14.20;;;1.90;96.80;;;;;;5055718;28;20193;-73
2021/12/03 02:22:47;;;;;;;27.47;15.10;;;1.90;96.90;;;;;;5056105;28;20166;-72
2021/12/03 02:25:20;;;;;;;25.00;14.07;;;2.00;97.10;;;;;;5055859;28;20562;-72
2021/12/03 02:27:50;;;;;;;25.77;14.70;;;2.00;97.00;;;;;;5054545;28;20428;-75
2021/12/03 02:30:16;;;;;;;26.00;12.50;;;2.10;97.10;;;;;;5055887;28;20415;-74
2021/12/03 02:32:42;;;;;;;28.60;14.27;;;2.20;97.00;;;;;;5055737;28;20408;-74
2021/12/03 02:35:09;;;;;;;23.07;13.60;;;2.30;96.80;;;;;;5055902;28;20251;-72
2021/12/03 02:37:35;;;;;;;27.87;13.77;;;2.30;96.70;;;;;;5055799;28;20871;-76
2021/12/03 02:40:03;;;;;;;29.73;14.33;;;2.30;96.70;;;;;;5056052;28;20408;-73
2021/12/03 02:42:29;;;;;;;22.33;13.90;;;2.40;96.60;;;;;;5037678;28;20415;-75
2021/12/03 02:44:55;;;;;;;24.53;14.30;;;2.40;96.40;;;;;;5055515;28;20812;-73
2021/12/03 02:47:20;;;;;;;24.60;15.17;;;2.40;96.30;;;;;;5054955;28;20189;-73
2021/12/03 02:49:48;;;;;;;25.13;13.27;;;2.50;96.20;;;;;;5056110;28;20404;-74
2021/12/03 02:52:13;;;;;;;28.00;15.07;;;2.40;96.20;;;;;;5055723;28;20639;-75
2021/12/03 02:54:39;;;;;;;28.40;14.57;;;2.50;96.20;;;;;;5055717;28;20411;-74
2021/12/03 02:57:05;;;;;;;29.07;14.10;;;2.50;96.10;;;;;;5054832;28;20649;-74
2021/12/03 02:59:34;;;;;;;27.03;12.37;;;2.50;96.10;;;;;;5054990;28;20166;-73
2021/12/03 03:02:01;;;;;;;28.27;13.10;;;2.50;96.10;;;;;;5054224;28;20176;-73
2021/12/03 03:04:27;;;;;;;24.60;13.70;;;2.60;96.10;;;;;;5054922;28;20471;-75
2021/12/03 03:06:53;;;;;;;24.40;14.43;;;2.60;95.90;;;;;;5055542;28;20507;-72
2021/12/03 03:09:19;;;;;;;26.53;14.40;;;2.60;95.90;;;;;;5057213;28;20405;-73
2021/12/03 03:11:46;;;;;;;20.40;12.00;;;2.60;95.90;;;;;;5057310;28;20582;-74
2021/12/03 03:14:12;;;;;;;26.43;13.37;;;2.60;95.90;;;;;;5056279;28;20415;-72
2021/12/03 03:16:38;;;;;;;27.63;13.20;;;2.60;95.90;;;;;;5055834;28;20515;-73
2021/12/03 03:19:13;;;;;;;21.90;13.33;;;2.60;95.90;;;;;;5055723;28;20462;-73
2021/12/03 03:21:40;;;;;;;25.13;14.47;;;2.60;95.70;;;;;;5056213;28;20170;-74
2021/12/03 03:24:07;;;;;;;22.80;11.90;;;2.60;95.70;;;;;;5057792;28;20413;-76
2021/12/03 03:26:38;;;;;;;25.03;13.63;;;2.70;96.10;;;;;;5057469;28;20444;-73
2021/12/03 03:29:06;;;;;;;18.17;12.10;;;2.70;95.70;;;;;;5058601;28;20495;-74
2021/12/03 03:31:36;;;;;;;25.53;14.47;;;2.70;95.70;;;;;;5054586;28;20948;-74
2021/12/03 03:34:03;;;;;;;28.50;13.00;;;2.70;95.70;;;;;;5053970;28;20413;-74
2021/12/03 03:36:34;;;;;;;24.17;13.20;;;2.80;95.70;;;;;;5053934;28;20440;-73
2021/12/03 03:39:01;;;;;;;24.13;13.67;;;2.80;96.00;;;;;;5054927;28;20897;-75
2021/12/03 03:41:27;;;;;;;30.70;11.67;;;2.80;95.60;;;;;;5056058;28;20454;-73
2021/12/03 03:43:53;;;;;;;23.17;12.33;;;2.90;95.60;;;;;;5053304;28;20426;-74
2021/12/03 03:46:19;;;;;;;20.20;11.47;;;2.90;95.40;;;;;;5054570;28;20511;-73
2021/12/03 03:48:44;;;;;;;19.47;11.23;;;2.90;95.30;;;;;;5055283;28;20194;-75
2021/12/03 03:51:10;;;;;;;23.87;11.97;;;2.90;95.40;;;;;;5055854;28;20472;-75
2021/12/03 03:53:38;;;;;;;19.90;10.30;;;2.90;95.10;;;;;;5055534;28;20679;-74
2021/12/03 03:56:05;;;;;;;22.20;10.37;;;2.90;95.00;;;;;;5053816;28;20182;-73
2021/12/03 03:58:31;;;;;;;17.70;10.17;;;2.90;95.60;;;;;;5053103;28;20439;-74
2021/12/03 04:00:57;;;;;;;15.20;10.10;;;2.90;95.30;;;;;;5055375;28;20407;-75
2021/12/03 04:03:24;;;;;;;21.90;11.10;;;2.90;95.70;;;;;;5054650;28;20531;-74
2021/12/03 04:05:50;;;;;;;17.03;9.80;;;2.90;95.50;;;;;;5054159;28;20454;-74
2021/12/03 04:08:16;;;;;;;21.47;10.87;;;2.90;95.20;;;;;;5053040;28;20443;-75
2021/12/03 04:10:42;;;;;;;17.40;10.67;;;2.90;95.20;;;;;;5054845;28;20408;-75
2021/12/03 04:13:07;;;;;;;23.00;10.20;;;2.90;95.10;;;;;;5036194;28;20506;-74
2021/12/03 04:15:33;;;;;;;17.60;9.10;;;2.90;95.20;;;;;;5054469;28;20166;-75
2021/12/03 04:17:59;;;;;;;17.47;8.17;;;2.90;95.20;;;;;;5054370;28;20472;-75
2021/12/03 04:20:25;;;;;;;14.70;8.70;;;2.90;95.30;;;;;;5054320;28;20170;-74
2021/12/03 04:22:51;;;;;;;19.23;8.53;;;2.90;95.20;;;;;;5053374;28;20435;-73
2021/12/03 04:25:20;;;;;;;13.50;8.40;;;2.90;95.10;;;;;;5040782;28;20204;-72
2021/12/03 04:27:47;;;;;;;16.33;8.80;;;2.90;95.10;;;;;;5065419;28;20424;-73
2021/12/03 04:30:18;;;;;;;16.13;9.20;;;3.00;95.10;;;;;;5060029;28;20407;-74
2021/12/03 04:32:44;;;;;;;18.50;9.50;;;3.00;95.00;;;;;;5059359;28;20523;-74
2021/12/03 04:35:10;;;;;;;15.30;8.47;;;3.10;95.10;;;;;;5060199;28;20790;-72
2021/12/03 04:37:37;;;;;;;17.17;8.70;;;3.10;94.80;;;;;;5057523;28;20455;-75
2021/12/03 04:40:06;;;;;;;21.57;8.43;;;3.10;94.70;;;;;;5053982;28;20520;-73
2021/12/03 04:42:31;;;;;;;17.70;8.60;;;3.10;94.70;;;;;;5052618;28;20420;-74
2021/12/03 04:44:57;;;;;;;15.27;8.57;;;3.10;94.50;;;;;;5052851;28;20463;-73
2021/12/03 04:47:22;;;;;;;17.80;7.63;;;3.20;94.40;;;;;;5053943;28;20174;-74
2021/12/03 04:49:48;;;;;;;13.40;7.17;;;3.20;94.40;;;;;;5053607;28;20257;-73
2021/12/03 04:52:14;;;;;;;13.83;7.10;;;3.20;94.40;;;;;;5053952;28;20165;-74
2021/12/03 04:54:41;;;;;;;16.83;7.90;;;3.20;94.20;;;;;;5053606;28;20551;-74
2021/12/03 04:57:07;;;;;;;13.90;7.33;;;3.20;94.30;;;;;;5052298;28;20196;-73
2021/12/03 04:59:33;;;;;;;13.90;7.20;;;3.20;94.30;;;;;;5051965;28;20785;-74
2021/12/03 05:01:59;;;;;;;12.50;6.60;;;3.30;94.20;;;;;;5051986;28;20220;-73
2021/12/03 05:04:24;;;;;;;17.30;7.70;;;3.30;94.10;;;;;;5053436;28;20169;-73
2021/12/03 05:09:21;;;;;;;13.47;8.67;;;3.30;94.00;;;;;;5053376;28;20165;-74
2021/12/03 05:11:46;;;;;;;13.77;6.67;;;3.30;94.00;;;;;;5051975;28;20405;-74
2021/12/03 05:14:13;;;;;;;14.07;6.20;;;3.30;94.10;;;;;;5053393;28;20486;-73
2021/12/03 05:16:38;;;;;;;12.30;6.30;;;3.30;94.00;;;;;;5052876;28;20177;-73
2021/12/03 05:19:04;;;;;;;13.83;7.00;;;3.30;94.10;;;;;;5051553;28;20416;-73
2021/12/03 05:21:30;;;;;;;12.40;6.77;;;3.30;94.10;;;;;;5053030;28;20495;-76
2021/12/03 05:23:56;;;;;;;12.87;7.30;;;3.30;94.20;;;;;;5054446;28;20447;-74
2021/12/03 05:26:22;;;;;;;17.27;7.57;;;3.30;94.20;;;;;;5056370;28;20750;-74
2021/12/03 05:28:49;;;;;;;18.67;7.30;;;3.30;94.00;;;;;;5061031;28;20532;-74
2021/12/03 05:31:15;;;;;;;12.83;7.57;;;3.30;94.20;;;;;;5061033;28;20459;-73
2021/12/03 05:33:41;;;;;;;11.93;7.13;;;3.20;94.10;;;;;;5059582;28;20404;-75
2021/12/03 05:36:06;;;;;;;16.43;6.90;;;3.20;94.30;;;;;;5058591;28;20910;-74
2021/12/03 05:38:32;;;;;;;14.37;6.93;;;3.20;94.40;;;;;;5074107;22;20221;-74
2021/12/03 05:40:58;;;;;;;10.97;7.03;;;3.20;94.20;;;;;;5053708;28;20652;-74
2021/12/03 05:43:23;;;;;;;10.73;6.10;;;3.20;94.30;;;;;;5052088;28;20169;-74
2021/12/03 05:45:49;;;;;;;10.00;6.57;;;3.20;94.40;;;;;;5053437;28;20715;-74
2021/12/03 05:48:15;;;;;;;11.50;5.40;;;3.20;94.50;;;;;;5053399;28;20173;-74
2021/12/03 05:50:42;;;;;;;10.90;6.33;;;3.20;94.40;;;;;;5053487;28;20557;-73
2021/12/03 05:53:07;;;;;;;10.70;6.13;;;3.20;94.50;;;;;;5052945;28;20416;-74
2021/12/03 05:55:33;;;;;;;12.10;6.20;;;3.30;94.50;;;;;;5051830;28;20513;-73
2021/12/03 05:57:59;;;;;;;10.73;5.90;;;3.30;94.50;;;;;;5053150;28;20212;-74
2021/12/03 06:00:34;;;;;;;10.30;5.00;;;3.30;94.50;;;;;;5053307;28;20170;-74
2021/12/03 06:03:00;;;;;;;12.53;5.70;;;3.40;94.40;;;;;;5052919;28;20308;-73
2021/12/03 06:05:28;;;;;;;16.03;5.67;;;3.40;94.30;;;;;;5052956;28;20462;-74
2021/12/03 06:07:55;;;;;;;13.43;5.70;;;3.40;94.20;;;;;;5053021;28;20521;-74
2021/12/03 06:10:21;;;;;;;20.33;5.70;;;3.40;94.20;;;;;;5035272;28;20473;-74
2021/12/03 06:12:47;;;;;;;14.13;5.60;;;3.40;94.20;;;;;;5052639;28;20484;-74
2021/12/03 06:15:14;;;;;;;9.70;6.37;;;3.40;94.20;;;;;;5027375;28;20559;-74
2021/12/03 06:17:40;;;;;;;9.50;6.20;;;3.40;94.30;;;;;;5025449;28;20441;-72
2021/12/03 06:20:07;;;;;;;21.93;6.60;;;3.50;94.50;;;;;;5031665;28;20491;-74
2021/12/03 06:22:33;;;;;;;9.33;4.80;;;3.50;94.50;;;;;;5032463;28;20536;-75
2021/12/03 06:25:00;;;;;;;12.83;5.90;;;3.50;94.60;;;;;;5032845;28;20510;-73
2021/12/03 06:27:26;;;;;;;11.30;5.40;;;3.50;94.70;;;;;;5024902;28;20448;-74
2021/12/03 06:29:52;;;;;;;8.70;4.87;;;3.50;94.60;;;;;;5029020;28;20429;-73
2021/12/03 06:32:18;;;;;;;13.47;5.43;;;3.50;94.70;;;;;;5016223;28;21041;-74
2021/12/03 06:34:43;;;;;;;7.30;4.53;;;3.50;94.80;;;;;;5012626;28;20520;-73
2021/12/03 06:37:09;;;;;;;14.77;5.57;;;3.50;94.80;;;;;;5011251;28;20195;-76
2021/12/03 06:39:36;;;;;;;10.23;7.47;;;3.60;94.90;;;;;;5013124;28;20642;-75
2021/12/03 06:42:02;;;;;;;11.67;6.00;;;3.60;94.90;;;;;;5028899;28;20181;-76
2021/12/03 06:44:28;;;;;;;10.77;5.23;;;3.60;94.80;;;;;;5033214;28;20478;-74
2021/12/03 06:46:54;;;;;;;10.83;5.33;;;3.60;94.80;;;;;;5031646;28;20417;-74
2021/12/03 06:49:24;;;;;;;7.60;4.73;;;3.50;94.80;;;;;;5032689;28;20663;-76
2021/12/03 06:51:51;;;;;;;10.50;4.47;;;3.50;94.80;;;;;;5023694;28;20409;-76
2021/12/03 06:54:26;;;;;;;14.70;4.37;;;3.50;95.00;;;;;;5021411;28;20405;-76
2021/12/03 06:56:52;;;;;;;12.43;5.00;;;3.60;95.10;;;;;;5032936;28;20778;-77
2021/12/03 06:59:23;;;;;;;11.60;4.93;;;3.60;95.10;;;;;;5026566;28;20942;-76
2021/12/03 07:01:50;;;;;;;13.83;4.87;;;3.60;95.00;;;;;;5032405;28;20417;-76
2021/12/03 07:04:17;;;;;;;9.23;4.93;;;3.60;95.50;;;;;;5032073;28;20416;-76
2021/12/03 07:06:43;;;;;;;9.50;5.47;;;3.60;95.10;;;;;;5032438;28;20492;-75
2021/12/03 07:09:09;;;;;;;11.10;5.03;;;3.60;95.20;;;;;;5032407;28;20412;-75
2021/12/03 07:11:35;;;;;;;9.37;4.63;;;3.60;95.20;;;;;;5031640;28;20478;-76
2021/12/03 07:14:01;;;;;;;12.30;4.70;;;3.60;95.20;;;;;;5031299;28;20433;-75
2021/12/03 07:16:27;;;;;;;10.10;4.20;;;3.60;95.10;;;;;;5031121;28;20286;-76
2021/12/03 07:18:53;;;;;;;10.57;4.80;;;3.60;95.20;;;;;;5025089;28;20529;-76
2021/12/03 07:21:19;;;;;;;7.53;5.30;;;3.60;95.10;;;;;;5012463;28;20418;-76
2021/12/03 07:23:45;;;;;;;14.10;4.73;;;3.60;95.20;;;;;;5012650;28;20201;-76
2021/12/03 07:26:10;;;;;;;12.73;4.80;;;3.60;95.20;;;;;;5011163;28;20454;-76
2021/12/03 07:28:37;;;;;;;23.60;4.93;;;3.60;95.20;;;;;;5024629;28;20282;-75
2021/12/03 07:31:03;;;;;;;7.00;4.23;;;3.60;95.10;;;;;;5025250;28;20198;-76
2021/12/03 07:33:31;;;;;;;11.47;5.30;;;3.60;95.20;;;;;;5029352;28;20448;-76
2021/12/03 07:35:56;;;;;;;8.93;5.07;;;3.60;95.00;;;;;;5027821;28;20175;-76
2021/12/03 07:38:22;;;;;;;18.07;6.00;;;3.60;95.00;;;;;;5012250;28;20461;-76
2021/12/03 07:40:48;;;;;;;11.97;5.90;;;3.60;95.10;;;;;;5018730;28;20171;-75
2021/12/03 07:43:17;;;;;;;17.63;6.20;;;3.60;94.90;;;;;;5029614;28;20174;-75
2021/12/03 07:45:45;;;;;;;19.60;5.63;;;3.60;94.90;;;;;;5032168;28;20468;-75
2021/12/03 07:48:11;;;;;;;15.00;5.30;;;3.60;94.90;;;;;;5027579;28;20993;-74
2021/12/03 07:50:40;;;;;;;11.10;5.77;;;3.60;94.80;;;;;;5032937;28;20413;-74
2021/12/03 07:53:07;;;;;;;13.20;5.77;;;3.60;94.70;;;;;;5017388;28;20182;-75
2021/12/03 07:55:33;;;;;;;15.07;9.67;;;3.60;94.70;;;;;;5016171;28;20437;-75
2021/12/03 07:57:59;;;;;;;12.43;4.70;;;3.60;94.70;;;;;;5029078;28;20457;-75
2021/12/03 08:00:25;;;;;;;12.30;5.40;;;3.70;94.50;;;;;;5040698;28;20429;-76
2021/12/03 08:02:51;;;;;;;16.20;5.40;;;3.70;94.30;;;;;;5031483;28;20269;-76
2021/12/03 08:05:17;;;;;;;8.87;4.47;;;3.70;94.40;;;;;;5021199;28;20455;-75
2021/12/03 08:07:46;;;;;;;12.10;5.10;;;3.70;94.30;;;;;;5032745;28;20445;-76
2021/12/03 08:10:13;;;;;;;6.67;4.70;;;3.80;94.20;;;;;;5029608;28;20424;-75
2021/12/03 08:12:40;;;;;;;11.40;4.90;;;3.80;94.00;;;;;;5030438;28;20782;-75
2021/12/03 08:15:06;;;;;;;9.30;3.80;;;3.80;93.80;;;;;;5030735;28;20428;-76
2021/12/03 08:17:32;;;;;;;8.93;4.33;;;3.90;93.70;;;;;;5013117;28;20449;-76
2021/12/03 08:19:58;;;;;;;13.03;4.27;;;3.90;93.60;;;;;;5031311;28;20799;-75
2021/12/03 08:22:24;;;;;;;11.73;3.90;;;3.90;93.50;;;;;;5013511;28;20421;-74
2021/12/03 08:24:50;;;;;;;17.17;4.90;;;3.90;93.30;;;;;;5028682;28;20547;-76
2021/12/03 08:27:16;;;;;;;9.23;4.00;;;4.00;93.20;;;;;;5022096;28;20621;-74
2021/12/03 08:29:42;;;;;;;8.53;3.80;;;4.00;93.20;;;;;;5022412;28;20531;-75
2021/12/03 08:32:10;;;;;;;11.13;4.73;;;4.10;93.10;;;;;;5028584;28;20415;-75
2021/12/03 08:34:36;;;;;;;8.47;4.37;;;4.20;92.90;;;;;;5030215;28;20421;-76
2021/12/03 08:37:02;;;;;;;15.00;4.37;;;4.20;92.20;;;;;;5013083;28;20481;-74
2021/12/03 08:39:30;;;;;;;8.63;3.73;;;4.20;92.20;;;;;;5024723;28;20443;-75
2021/12/03 08:41:56;;;;;;;11.60;3.40;;;4.20;92.40;;;;;;5020201;28;20428;-76
2021/12/03 08:44:21;;;;;;;5.60;2.77;;;4.30;91.70;;;;;;5029687;28;20425;-76
2021/12/03 08:46:52;;;;;;;12.23;3.17;;;4.20;91.30;;;;;;5030588;28;20664;-75
2021/12/03 08:49:28;;;;;;;8.20;2.50;;;4.30;91.00;;;;;;5027542;28;20163;-74
2021/12/03 08:57:36;;;;;;;8.17;3.20;;;4.30;91.10;;;;;;5016394;28;20444;-75
2021/12/03 09:00:16;;;;;;;6.00;3.03;;;4.40;91.30;;;;;;5025006;28;20469;-74
2021/12/03 09:02:43;;;;;;;7.63;3.53;;;4.50;90.50;;;;;;5010506;28;20509;-74
2021/12/03 09:05:10;;;;;;;13.03;3.60;;;4.60;90.70;;;;;;5028234;28;20907;-75
2021/12/03 09:07:37;;;;;;;10.67;2.90;;;4.70;90.40;;;;;;5034208;28;20428;-75
2021/12/03 09:10:10;;;;;;;7.07;3.20;;;4.80;90.10;;;;;;5029787;28;20458;-75
2021/12/03 09:12:36;;;;;;;7.17;2.53;;;5.00;89.60;;;;;;5028884;28;20773;-74
2021/12/03 09:15:06;;;;;;;25.00;13.10;;;5.00;87.80;;;;;;5032792;28;20439;-75
2021/12/03 09:17:38;;;;;;;11.53;3.37;;;5.10;86.60;;;;;;5034602;28;20486;-75
2021/12/03 09:20:27;;;;;;;5.80;2.67;;;5.00;83.70;;;;;;5021106;28;20444;-76
2021/12/03 09:22:55;;;;;;;4.67;2.67;;;5.10;84.30;;;;;;5026084;28;20444;-74
2021/12/03 09:25:47;;;;;;;6.53;2.83;;;5.10;81.30;;;;;;5029303;28;20448;-76
2021/12/03 09:28:12;;;;;;;5.87;2.37;;;5.20;81.20;;;;;;5032031;28;20548;-75
2021/12/03 09:30:41;;;;;;;13.43;3.00;;;5.60;80.40;;;;;;5034339;28;20424;-75
2021/12/03 09:33:11;;;;;;;6.30;2.60;;;5.90;78.00;;;;;;5014609;28;20438;-74
2021/12/03 09:35:44;;;;;;;6.50;2.40;;;6.10;75.30;;;;;;5018299;28;20526;-76
2021/12/03 09:38:10;;;;;;;9.33;2.27;;;5.90;75.20;;;;;;5008614;28;20460;-75
2021/12/03 09:40:37;;;;;;;16.90;2.57;;;5.90;73.80;;;;;;5032508;28;20516;-76
2021/12/03 09:43:05;;;;;;;9.30;2.67;;;5.80;75.20;;;;;;5020897;28;20184;-74
2021/12/03 09:45:31;;;;;;;6.70;2.20;;;5.90;76.20;;;;;;5017973;28;21024;-75
2021/12/03 09:47:58;;;;;;;9.33;2.80;;;6.00;73.30;;;;;;5013562;28;20541;-74
2021/12/03 09:50:24;;;;;;;8.07;2.27;;;6.30;72.70;;;;;;5024406;28;20185;-76
2021/12/03 09:55:36;;;;;;;5.07;2.30;;;6.40;70.90;;;;;;5023134;28;20178;-75
2021/12/03 10:16:00;;;;;;;9.30;2.10;;;6.10;69.90;;;;;;5029656;28;20435;-75
2021/12/03 10:18:40;;;;;;;15.43;3.67;;;5.90;69.50;;;;;;5015436;28;20460;-76
2021/12/03 10:24:30;;;;;;;10.57;3.70;;;5.80;73.10;;;;;;5024846;28;20437;-77
2021/12/03 10:27:48;;;;;;;6.13;2.70;;;6.00;74.20;;;;;;5030754;28;20457;-75
2021/12/03 10:51:55;;;;;;;18.30;3.67;;;6.40;71.20;;;;;;5015202;28;20418;-77
2021/12/03 10:54:48;;;;;;;9.10;2.90;;;6.40;69.20;;;;;;5027091;28;20905;-78
2021/12/03 11:18:55;;;;;;;8.27;2.60;;;5.90;69.50;;;;;;5034044;28;20424;-77
2021/12/03 12:11:35;;;;;;;9.80;4.70;;;5.60;71.30;;;;;;5025599;28;20444;-78
2021/12/03 13:11:54;;;;;;;6.40;2.50;;;6.50;70.80;;;;;;5036754;28;20428;-80
2021/12/03 13:59:18;;;;;;;5.10;2.60;;;6.10;70.30;;;;;;5032497;28;20448;-78
2021/12/03 14:07:10;;;;;;;7.10;2.50;;;6.30;69.50;;;;;;5022380;28;20487;-80
2021/12/03 14:51:10;;;;;;;9.33;3.73;;;5.80;72.50;;;;;;5025644;28;20437;-79
2021/12/03 14:56:11;;;;;;;5.60;2.57;;;5.80;72.00;;;;;;5023818;28;20440;-78
2021/12/03 15:01:16;;;;;;;8.77;2.80;;;5.70;71.90;;;;;;5018465;28;20433;-78
2021/12/03 15:04:02;;;;;;;3.17;2.00;;;5.70;72.50;;;;;;5023475;28;20409;-77
2021/12/03 15:06:55;;;;;;;3.40;2.00;;;5.70;72.50;;;;;;5024595;28;20472;-78
2021/12/03 15:09:32;;;;;;;4.60;2.80;;;5.60;71.70;;;;;;5028574;28;20417;-77
2021/12/03 15:12:19;;;;;;;4.87;2.37;;;5.60;71.70;;;;;;5024467;28;20421;-77
2021/12/03 15:18:06;;;;;;;2.87;1.90;;;5.60;72.00;;;;;;5014595;28;20434;-77
2021/12/03 15:23:17;;;;;;;9.03;3.60;;;5.60;72.20;;;;;;4991376;28;20437;-78
2021/12/03 15:31:34;;;;;;;5.07;2.70;;;5.40;74.40;;;;;;5033243;28;20913;-78
2021/12/03 15:40:03;;;;;;;5.13;2.70;;;5.30;77.70;;;;;;5027448;28;20418;-78
2021/12/03 15:56:24;;;;;;;5.83;2.30;;;5.20;84.00;;;;;;5024039;28;20509;-79
2021/12/03 16:04:42;;;;;;;10.53;4.43;;;4.90;88.80;;;;;;5017946;28;20819;-78
2021/12/03 16:43:39;;;;;;;9.20;2.87;;;4.80;91.20;;;;;;5032198;28;20416;-79
2021/12/03 16:44:32;;;;;;;6.40;3.20;;;4.90;90.20;;;;;;5012511;28;20741;-78
2021/12/03 16:47:44;;;;;;;30.50;22.47;;;4.80;90.20;;;;;;5021421;28;20457;-77
2021/12/03 16:52:34;;;;;;;6.83;3.50;;;4.90;90.10;;;;;;5030110;28;20435;-78
2021/12/03 16:55:03;;;;;;;6.97;3.00;;;4.90;89.10;;;;;;5031872;28;20530;-79
2021/12/03 16:57:33;;;;;;;6.77;3.00;;;4.90;90.10;;;;;;5031695;28;20437;-77
2021/12/03 17:00:13;;;;;;;6.00;3.70;;;5.00;89.40;;;;;;5031653;28;20994;-78
2021/12/03 17:02:45;;;;;;;6.07;3.23;;;5.00;89.20;;;;;;5028687;28;20420;-77
2021/12/03 17:08:25;;;;;;;3.03;2.40;;;5.10;88.40;;;;;;5016656;28;21151;-77
2021/12/03 17:21:40;;;;;;;8.37;3.13;;;5.20;86.40;;;;;;5029713;28;20436;-78
2021/12/03 17:46:13;;;;;;;11.67;4.60;;;5.20;86.40;;;;;;5020661;28;20452;-75
2021/12/03 17:56:28;;;;;;;7.73;3.10;;;5.20;88.00;;;;;;5003004;28;20789;-74
2021/12/03 17:59:12;;;;;;;3.63;2.37;;;5.20;88.70;;;;;;5016449;28;20531;-73
2021/12/03 18:02:06;;;;;;;5.20;3.27;;;5.10;89.60;;;;;;5015747;28;20429;-73
2021/12/03 18:07:18;;;;;;;8.10;2.23;;;5.10;90.10;;;;;;5016324;28;20468;-71
2021/12/03 18:48:17;;;;;;;9.97;2.90;;;5.00;91.40;;;;;;5010637;28;20785;-73
2021/12/03 18:55:37;;;;;;;4.50;2.10;;;5.00;91.30;;;;;;5022669;28;20421;-73
2021/12/03 18:58:05;;;;;;;5.17;3.17;;;5.00;91.20;;;;;;5023703;28;20433;-73
2021/12/03 19:00:34;;;;;;;9.30;2.83;;;5.00;91.10;;;;;;5022560;28;20466;-72
2021/12/03 19:08:20;;;;;;;8.17;3.27;;;5.00;91.20;;;;;;5024115;28;20505;-75
2021/12/03 19:10:50;;;;;;;9.30;2.97;;;5.00;91.20;;;;;;5022079;28;20237;-72
2021/12/03 19:13:22;;;;;;;7.80;3.60;;;5.00;91.20;;;;;;5022236;28;20509;-75
2021/12/03 19:15:49;;;;;;;4.87;2.70;;;5.00;91.30;;;;;;5027051;28;20443;-71
2021/12/03 19:18:15;;;;;;;5.50;3.30;;;5.00;91.20;;;;;;5012289;28;20430;-77
2021/12/03 19:20:43;;;;;;;7.20;3.57;;;5.00;91.20;;;;;;5017676;28;20422;-73
2021/12/03 19:23:08;;;;;;;11.40;4.40;;;5.00;91.20;;;;;;5016972;28;20850;-72
2021/12/03 19:25:35;;;;;;;9.90;4.07;;;5.00;91.20;;;;;;5014656;28;20489;-73
2021/12/03 19:28:01;;;;;;;7.60;4.30;;;5.10;91.20;;;;;;5014172;28;20199;-73
2021/12/03 19:30:27;;;;;;;5.83;3.50;;;5.10;91.10;;;;;;5022998;28;20402;-72
2021/12/03 19:32:53;;;;;;;4.10;2.90;;;5.10;91.00;;;;;;5025546;28;20461;-74
2021/12/03 19:35:22;;;;;;;3.03;2.27;;;5.10;90.50;;;;;;5022752;28;20175;-74
2021/12/03 19:37:53;;;;;;;4.50;2.50;;;5.10;90.60;;;;;;5013358;28;20475;-72
2021/12/03 19:40:23;;;;;;;3.20;2.20;;;5.10;90.80;;;;;;5004164;28;20455;-73
2021/12/03 19:43:04;;;;;;;5.50;3.13;;;5.10;90.70;;;;;;4993215;28;20449;-72
2021/12/03 19:45:33;;;;;;;6.07;2.97;;;5.10;90.80;;;;;;5018744;28;20477;-73
2021/12/03 19:48:17;;;;;;;4.03;2.20;;;5.20;90.80;;;;;;5026909;28;20438;-73
2021/12/03 19:50:45;;;;;;;4.10;2.40;;;5.20;90.20;;;;;;5020092;28;20421;-71
2021/12/03 19:55:38;;;;;;;5.17;2.90;;;5.10;89.50;;;;;;5016393;28;20418;-73
2021/12/03 19:58:10;;;;;;;5.43;2.77;;;5.10;90.00;;;;;;5013995;28;20462;-74
2021/12/03 20:00:37;;;;;;;3.70;2.50;;;5.20;90.20;;;;;;5019174;28;20457;-73
2021/12/03 20:03:04;;;;;;;8.17;3.90;;;5.20;90.10;;;;;;5017447;28;20456;-72
2021/12/03 20:05:30;;;;;;;4.60;2.57;;;5.20;90.00;;;;;;5013037;28;20594;-72
2021/12/03 20:07:58;;;;;;;5.53;2.70;;;5.20;90.00;;;;;;5014470;28;20434;-73
2021/12/03 20:10:26;;;;;;;6.00;3.40;;;5.30;90.10;;;;;;5014071;28;20429;-74
2021/12/03 20:12:52;;;;;;;4.50;2.70;;;5.30;90.00;;;;;;5015263;28;20413;-73
2021/12/03 20:15:28;;;;;;;4.67;2.07;;;5.30;89.70;;;;;;5012591;28;20418;-76
2021/12/03 20:18:09;;;;;;;4.20;1.67;;;5.30;89.60;;;;;;4996396;28;20936;-74
2021/12/03 20:20:35;;;;;;;3.73;1.80;;;5.30;89.00;;;;;;5000523;28;20430;-74
2021/12/03 20:23:09;;;;;;;5.30;2.30;;;5.30;88.10;;;;;;5014058;28;20448;-74
2021/12/03 20:28:05;;;;;;;4.13;2.30;;;5.30;87.70;;;;;;5015373;28;20449;-74